createdAt,value
2019-05-02T00:01:58.188Z,69.80
2019-05-02T00:04:27.385Z,71.20
2019-05-02T00:07:09.296Z,70.80
2019-05-02T00:09:47.389Z,70.30
2019-05-02T00:12:14.745Z,70.30
2019-05-02T00:14:43.745Z,69.80
2019-05-02T00:17:12.558Z,70.10
2019-05-02T00:19:45.211Z,70.50
2019-05-02T00:22:12.270Z,69.00
2019-05-02T00:24:41.957Z,72.30
2019-05-02T00:27:10.491Z,71.80
2019-05-02T00:29:39.252Z,71.00
2019-05-02T00:32:08.266Z,70.50
2019-05-02T00:34:36.713Z,70.60
2019-05-02T00:37:05.584Z,69.90
2019-05-02T00:39:34.033Z,70.00
2019-05-02T00:42:12.471Z,69.40
2019-05-02T00:44:32.637Z,71.30
2019-05-02T00:47:06.093Z,71.80
2019-05-02T00:49:35.407Z,71.30
2019-05-02T00:52:04.546Z,71.80
2019-05-02T00:54:32.992Z,72.30
2019-05-02T00:57:02.084Z,71.30
2019-05-02T00:59:30.544Z,70.60
2019-05-02T01:02:12.926Z,71.60
2019-05-02T01:04:43.095Z,69.80
2019-05-02T01:07:12.092Z,69.80
2019-05-02T01:09:42.126Z,70.50
2019-05-02T01:12:11.055Z,70.80
2019-05-02T01:14:39.484Z,70.60
2019-05-02T01:17:08.096Z,70.40
2019-05-02T01:19:36.526Z,71.60
2019-05-02T01:22:05.038Z,71.80
2019-05-02T01:24:52.119Z,70.80
2019-05-02T01:27:41.276Z,70.90
2019-05-02T01:30:28.694Z,71.30
2019-05-02T01:33:01.353Z,71.40
2019-05-02T01:35:39.251Z,70.90
2019-05-02T01:38:26.192Z,71.70
2019-05-02T01:40:56.302Z,71.50
2019-05-02T01:43:26.903Z,70.50
2019-05-02T01:45:55.601Z,69.90
2019-05-02T01:48:24.624Z,69.20
2019-05-02T01:50:53.215Z,71.10
2019-05-02T01:53:22.752Z,70.20
2019-05-02T01:55:51.910Z,70.30
2019-05-02T01:58:22.922Z,70.50
2019-05-02T02:00:51.955Z,71.60
2019-05-02T02:03:20.522Z,69.50
2019-05-02T02:05:49.028Z,69.00
2019-05-02T02:08:18.050Z,69.70
2019-05-02T02:10:50.622Z,71.10
2019-05-02T02:13:17.371Z,71.00
2019-05-02T02:15:45.804Z,72.10
2019-05-02T02:18:15.530Z,71.60
2019-05-02T02:20:49.336Z,71.40
2019-05-02T02:23:36.342Z,71.30
2019-05-02T02:26:15.712Z,72.80
2019-05-02T02:28:44.559Z,72.70
2019-05-02T02:31:12.984Z,71.70
2019-05-02T02:33:48.056Z,70.60
2019-05-02T02:36:12.119Z,70.10
2019-05-02T02:38:40.552Z,71.10
2019-05-02T02:41:13.138Z,70.60
2019-05-02T02:43:39.528Z,71.30
2019-05-02T02:46:12.299Z,71.50
2019-05-02T02:48:42.700Z,70.30
2019-05-02T02:51:22.145Z,71.40
2019-05-02T02:53:41.505Z,71.10
2019-05-02T02:56:10.327Z,71.60
2019-05-02T02:58:45.695Z,70.40
2019-05-02T03:01:09.012Z,72.10
2019-05-02T03:03:37.448Z,72.40
2019-05-02T03:06:08.020Z,72.80
2019-05-02T03:08:44.690Z,72.00
2019-05-02T03:11:06.197Z,71.90
2019-05-02T03:13:52.307Z,71.10
2019-05-02T03:16:19.740Z,71.00
2019-05-02T03:18:48.325Z,71.10
2019-05-02T03:21:20.321Z,71.30
2019-05-02T03:23:46.920Z,70.80
2019-05-02T03:26:17.251Z,70.30
2019-05-02T03:28:57.185Z,71.80
2019-05-02T03:31:29.150Z,73.10
2019-05-02T03:33:55.040Z,72.80
2019-05-02T03:36:29.356Z,72.70
2019-05-02T03:38:47.459Z,72.40
2019-05-02T03:41:20.597Z,72.10
2019-05-02T03:43:46.680Z,72.80
2019-05-02T03:46:20.552Z,71.90
2019-05-02T03:48:45.635Z,71.90
2019-05-02T03:51:21.601Z,72.80
2019-05-02T03:53:44.909Z,72.20
2019-05-02T03:56:14.202Z,71.70
2019-05-02T03:58:48.404Z,71.80
2019-05-02T04:01:13.070Z,71.50
2019-05-02T04:03:43.797Z,73.00
2019-05-02T04:06:20.310Z,72.10
2019-05-02T04:08:44.109Z,72.50
2019-05-02T04:11:19.171Z,72.40
2019-05-02T04:13:48.659Z,73.20
2019-05-02T04:16:17.824Z,73.20
2019-05-02T04:18:54.692Z,72.40
2019-05-02T04:21:24.378Z,72.30
2019-05-02T04:23:48.290Z,74.00
2019-05-02T04:26:18.134Z,73.40
2019-05-02T04:28:51.545Z,74.20
2019-05-02T04:31:17.137Z,73.90
2019-05-02T04:33:45.573Z,74.20
2019-05-02T04:36:17.627Z,73.30
2019-05-02T04:38:51.085Z,74.20
2019-05-02T04:41:18.776Z,72.60
2019-05-02T04:43:51.483Z,74.10
2019-05-02T04:46:22.092Z,76.90
2019-05-02T04:48:49.753Z,75.90
2019-05-02T04:51:17.540Z,75.50
2019-05-02T04:53:49.542Z,74.60
2019-05-02T04:56:18.458Z,76.20
2019-05-02T04:58:49.368Z,76.80
2019-05-02T05:01:16.664Z,75.30
2019-05-02T05:03:49.230Z,75.40
2019-05-02T05:06:15.349Z,76.00
2019-05-02T05:08:44.127Z,76.50
2019-05-02T05:11:13.931Z,76.20
2019-05-02T05:13:42.748Z,75.50
2019-05-02T05:16:15.563Z,75.00
2019-05-02T05:18:43.956Z,74.90
2019-05-02T05:21:11.541Z,72.90
2019-05-02T05:23:44.710Z,73.00
2019-05-02T05:26:13.134Z,74.30
2019-05-02T05:28:44.374Z,73.60
2019-05-02T05:31:16.468Z,74.70
2019-05-02T05:33:42.498Z,73.20
2019-05-02T05:36:10.967Z,72.70
2019-05-02T05:38:40.774Z,73.50
2019-05-02T05:41:13.207Z,73.90
2019-05-02T05:43:39.589Z,74.00
2019-05-02T05:46:12.861Z,72.30
2019-05-02T05:48:40.790Z,73.00
2019-05-02T05:51:11.918Z,72.70
2019-05-02T05:53:39.442Z,72.40
2019-05-02T05:56:08.281Z,72.30
2019-05-02T05:58:39.770Z,71.40
2019-05-02T06:01:10.185Z,70.20
2019-05-02T06:03:41.508Z,70.30
2019-05-02T06:06:09.725Z,71.60
2019-05-02T06:08:37.834Z,70.60
2019-05-02T06:11:06.721Z,70.80
2019-05-02T06:13:38.047Z,71.30
2019-05-02T06:16:05.387Z,68.60
2019-05-02T06:18:36.220Z,68.80
2019-05-02T06:21:08.690Z,69.40
2019-05-02T06:23:36.409Z,70.60
2019-05-02T06:26:08.090Z,70.50
2019-05-02T06:28:36.205Z,69.50
2019-05-02T06:31:07.213Z,70.80
2019-05-02T06:33:35.990Z,68.60
2019-05-02T06:36:04.582Z,69.80
2019-05-02T06:38:33.027Z,69.60
2019-05-02T06:41:01.483Z,70.20
2019-05-02T06:43:29.921Z,68.30
2019-05-02T06:45:58.687Z,68.40
2019-05-02T06:48:27.119Z,68.90
2019-05-02T06:50:56.930Z,68.70
2019-05-02T06:53:27.309Z,68.60
2019-05-02T06:55:55.748Z,69.40
2019-05-02T06:58:24.490Z,68.60
2019-05-02T07:00:58.008Z,68.90
2019-05-02T07:03:23.201Z,68.80
2019-05-02T07:05:52.009Z,69.00
2019-05-02T07:08:20.454Z,68.60
2019-05-02T07:10:49.282Z,67.00
2019-05-02T07:13:17.744Z,67.80
2019-05-02T07:15:57.128Z,68.10
2019-05-02T07:18:27.225Z,67.00
2019-05-02T07:20:55.675Z,67.80
2019-05-02T07:23:24.494Z,64.10
2019-05-02T07:25:53.288Z,63.30
2019-05-02T07:28:23.938Z,66.30
2019-05-02T07:30:54.604Z,63.90
2019-05-02T07:33:22.685Z,65.00
2019-05-02T07:35:55.150Z,64.80
2019-05-02T07:38:25.794Z,65.00
2019-05-02T07:40:53.045Z,63.00
2019-05-02T07:43:22.387Z,62.00
2019-05-02T07:45:51.312Z,61.80
2019-05-02T07:48:19.864Z,61.80
2019-05-02T07:50:48.361Z,62.10
2019-05-02T07:53:17.200Z,61.00
2019-05-02T07:55:45.653Z,62.20
2019-05-02T07:58:14.096Z,61.40
2019-05-02T08:00:42.624Z,61.90
2019-05-02T08:03:11.068Z,60.60
2019-05-02T08:05:39.560Z,61.10
2019-05-02T08:08:07.996Z,60.40
2019-05-02T08:10:36.505Z,60.00
2019-05-02T08:13:05.269Z,60.10
2019-05-02T08:15:34.068Z,60.30
2019-05-02T08:18:02.530Z,60.80
2019-05-02T08:20:31.241Z,60.10
2019-05-02T08:22:59.702Z,60.60
2019-05-02T08:25:28.145Z,59.60
2019-05-02T08:27:58.243Z,60.40
2019-05-02T08:30:28.665Z,59.50
2019-05-02T08:32:57.800Z,59.30
2019-05-02T08:35:28.065Z,57.80
2019-05-02T08:37:56.685Z,58.00
2019-05-02T08:40:25.580Z,57.50
2019-05-02T08:42:54.398Z,56.70
2019-05-02T08:45:22.857Z,56.40
2019-05-02T08:47:51.296Z,58.90
2019-05-02T08:50:20.158Z,56.20
2019-05-02T08:52:52.866Z,56.30
2019-05-02T08:55:21.391Z,54.50
2019-05-02T08:57:50.097Z,55.00
2019-05-02T09:00:19.217Z,53.70
2019-05-02T09:02:47.992Z,54.10
2019-05-02T09:05:16.572Z,54.10
2019-05-02T09:07:45.035Z,55.90
2019-05-02T09:10:14.004Z,52.30
2019-05-02T09:12:45.494Z,53.90
2019-05-02T09:15:13.374Z,53.00
2019-05-02T09:17:46.517Z,53.10
2019-05-02T09:20:19.933Z,52.90
2019-05-02T09:22:46.696Z,50.50
2019-05-02T09:25:15.578Z,52.30
2019-05-02T09:27:44.047Z,51.90
2019-05-02T09:30:17.141Z,51.00
2019-05-02T09:32:43.472Z,49.30
2019-05-02T09:35:12.171Z,48.60
2019-05-02T09:37:41.942Z,46.80
2019-05-02T09:40:16.656Z,47.40
2019-05-02T09:42:47.564Z,48.90
2019-05-02T09:45:19.321Z,51.00
2019-05-02T09:47:58.199Z,49.00
2019-05-02T09:50:20.670Z,49.90
2019-05-02T09:52:48.444Z,50.60
2019-05-02T09:55:18.252Z,45.00
2019-05-02T09:57:47.231Z,45.40
2019-05-02T10:00:36.444Z,47.00
2019-05-02T10:03:05.675Z,46.30
2019-05-02T10:05:34.124Z,46.50
2019-05-02T10:08:06.747Z,47.10
2019-05-02T10:10:37.121Z,47.20
2019-05-02T10:13:03.923Z,46.50
2019-05-02T10:15:32.835Z,44.70
2019-05-02T10:18:10.576Z,45.80
2019-05-02T10:20:36.251Z,46.60
2019-05-02T10:23:03.304Z,45.50
2019-05-02T10:25:38.512Z,47.50
2019-05-02T10:28:02.326Z,46.00
2019-05-02T10:30:35.256Z,45.60
2019-05-02T10:33:02.956Z,46.50
2019-05-02T10:35:37.298Z,44.60
2019-05-02T10:38:03.379Z,44.60
2019-05-02T10:40:32.246Z,44.20
2019-05-02T10:43:02.847Z,43.10
2019-05-02T10:45:32.197Z,44.50
2019-05-02T10:48:02.299Z,44.60
2019-05-02T10:50:33.032Z,44.30
2019-05-02T10:53:03.534Z,44.80
2019-05-02T10:55:33.190Z,42.30
2019-05-02T10:58:02.040Z,41.70
2019-05-02T11:00:36.116Z,42.90
2019-05-02T11:03:28.065Z,42.80
2019-05-02T11:06:05.406Z,43.80
2019-05-02T11:08:28.410Z,42.70
2019-05-02T11:10:59.186Z,43.00
2019-05-02T11:13:32.276Z,43.00
2019-05-02T11:16:18.835Z,44.60
2019-05-02T11:18:48.935Z,42.00
2019-05-02T11:21:18.863Z,41.80
2019-05-02T11:23:47.581Z,42.10
2019-05-02T11:26:21.467Z,43.20
2019-05-02T11:28:46.668Z,39.70
2019-05-02T11:31:15.426Z,41.50
2019-05-02T11:33:44.262Z,40.30
2019-05-02T11:36:13.829Z,39.60
2019-05-02T11:38:45.248Z,40.60
2019-05-02T11:41:12.578Z,40.30
2019-05-02T11:43:42.445Z,40.10
2019-05-02T11:46:12.154Z,40.00
2019-05-02T11:48:54.757Z,41.10
2019-05-02T11:51:12.731Z,40.30
2019-05-02T11:53:41.999Z,40.90
2019-05-02T11:56:13.123Z,41.60
2019-05-02T11:58:48.219Z,40.20
2019-05-02T12:01:12.546Z,39.10
2019-05-02T12:03:45.525Z,39.20
2019-05-02T12:06:19.506Z,41.30
2019-05-02T12:08:49.211Z,39.80
2019-05-02T12:11:17.710Z,39.80
2019-05-02T12:13:47.349Z,41.80
2019-05-02T12:16:15.921Z,41.50
2019-05-02T12:18:44.692Z,39.30
2019-05-02T12:21:13.614Z,40.30
2019-05-02T12:23:42.127Z,39.60
2019-05-02T12:26:12.386Z,40.90
2019-05-02T12:28:42.787Z,42.40
2019-05-02T12:31:16.707Z,40.80
2019-05-02T12:33:44.412Z,42.40
2019-05-02T12:36:12.844Z,40.40
2019-05-02T12:38:42.090Z,40.90
2019-05-02T12:41:20.389Z,40.10
2019-05-02T12:43:41.694Z,40.40
2019-05-02T12:46:11.728Z,39.50
2019-05-02T12:48:42.227Z,41.30
2019-05-02T12:51:12.685Z,39.80
2019-05-02T12:53:44.251Z,39.40
2019-05-02T12:56:12.701Z,38.60
2019-05-02T12:58:42.144Z,41.00
2019-05-02T13:01:12.240Z,41.20
2019-05-02T13:03:43.648Z,41.10
2019-05-02T13:06:12.436Z,39.30
2019-05-02T13:08:52.111Z,41.40
2019-05-02T13:11:36.824Z,42.00
2019-05-02T13:14:04.235Z,42.20
2019-05-02T13:16:33.503Z,41.40
2019-05-02T13:19:06.020Z,41.40
2019-05-02T13:21:43.072Z,43.10
2019-05-02T13:24:29.550Z,42.10
2019-05-02T13:26:59.289Z,40.70
2019-05-02T13:29:38.753Z,41.60
2019-05-02T13:32:18.917Z,39.60
2019-05-02T13:34:58.586Z,40.10
2019-05-02T13:37:27.101Z,39.60
2019-05-02T13:40:06.333Z,41.40
2019-05-02T13:42:35.117Z,43.20
2019-05-02T13:45:06.269Z,40.20
2019-05-02T13:47:35.059Z,40.50
2019-05-02T13:50:04.913Z,40.00
2019-05-02T13:52:35.096Z,39.40
2019-05-02T13:55:08.627Z,39.10
2019-05-02T13:57:43.140Z,40.30
2019-05-02T14:00:08.369Z,40.20
2019-05-02T14:02:42.701Z,39.00
2019-05-02T14:05:14.243Z,39.20
2019-05-02T14:07:48.324Z,39.50
2019-05-02T14:10:39.107Z,38.60
2019-05-02T14:13:03.452Z,39.80
2019-05-02T14:15:39.185Z,38.40
2019-05-02T14:18:07.631Z,38.60
2019-05-02T14:20:42.816Z,39.30
2019-05-02T14:23:12.213Z,40.80
2019-05-02T14:25:42.581Z,39.60
2019-05-02T14:28:12.868Z,37.90
2019-05-02T14:30:45.944Z,39.40
2019-05-02T14:33:13.401Z,39.30
2019-05-02T14:35:42.589Z,38.10
2019-05-02T14:38:13.327Z,39.00
2019-05-02T14:40:54.251Z,40.50
2019-05-02T14:43:44.590Z,42.70
2019-05-02T14:46:12.555Z,41.10
2019-05-02T14:48:45.088Z,42.90
2019-05-02T14:51:16.512Z,41.90
2019-05-02T14:53:43.040Z,44.00
2019-05-02T14:56:16.347Z,44.20
2019-05-02T14:58:44.790Z,57.00
2019-05-02T15:01:17.171Z,71.60
2019-05-02T15:03:43.402Z,73.00
2019-05-02T15:06:12.127Z,85.00
2019-05-02T15:08:42.154Z,87.00
2019-05-02T15:11:12.537Z,88.50
2019-05-02T15:13:43.526Z,90.20
2019-05-02T15:16:17.761Z,90.00
2019-05-02T15:18:42.033Z,88.80
2019-05-02T15:21:16.337Z,90.10
2019-05-02T15:23:42.627Z,87.80
2019-05-02T15:26:13.657Z,84.00
2019-05-02T15:28:42.200Z,86.10
2019-05-02T15:31:28.520Z,87.80
2019-05-02T15:34:01.543Z,85.80
2019-05-02T15:36:27.945Z,81.60
2019-05-02T15:38:56.387Z,86.20
2019-05-02T15:41:24.837Z,81.10
2019-05-02T15:43:53.598Z,85.20
2019-05-02T15:46:28.097Z,81.40
2019-05-02T15:48:57.185Z,83.90
2019-05-02T15:51:27.447Z,83.70
2019-05-02T15:54:08.370Z,83.80
2019-05-02T15:56:35.890Z,81.80
2019-05-02T15:59:07.614Z,81.80
2019-05-02T16:01:41.624Z,82.80
2019-05-02T16:04:09.504Z,81.30
2019-05-02T16:06:38.327Z,82.20
2019-05-02T16:09:07.700Z,81.80
2019-05-02T16:11:36.176Z,76.80
2019-05-02T16:14:05.106Z,76.10
2019-05-02T16:16:36.646Z,77.80
2019-05-02T16:19:03.792Z,79.90
2019-05-02T16:21:36.831Z,78.10
2019-05-02T16:24:23.003Z,79.50
2019-05-02T16:26:55.159Z,79.80
2019-05-02T16:29:28.268Z,77.30
2019-05-02T16:32:05.573Z,79.10
2019-05-02T16:34:35.789Z,78.60
2019-05-02T16:37:16.591Z,74.30
2019-05-02T16:39:49.376Z,74.60
2019-05-02T16:42:15.161Z,79.50
2019-05-02T16:44:43.596Z,76.20
2019-05-02T16:47:13.940Z,76.30
2019-05-02T16:49:42.595Z,74.10
2019-05-02T16:52:12.785Z,76.80
2019-05-02T16:54:43.745Z,74.70
2019-05-02T16:57:12.604Z,72.60
2019-05-02T16:59:42.582Z,74.80
2019-05-02T17:02:12.212Z,74.40
2019-05-02T17:04:42.524Z,74.80
2019-05-02T17:07:12.663Z,74.00
2019-05-02T17:09:52.076Z,73.00
2019-05-02T17:12:20.927Z,73.60
2019-05-02T17:15:07.892Z,75.80
2019-05-02T17:17:36.445Z,73.70
2019-05-02T17:20:11.890Z,75.10
2019-05-02T17:22:37.376Z,74.00
2019-05-02T17:25:06.807Z,74.30
2019-05-02T17:27:35.245Z,76.60
2019-05-02T17:30:08.949Z,76.40
2019-05-02T17:32:37.980Z,75.50
2019-05-02T17:35:10.063Z,74.90
2019-05-02T17:37:40.646Z,73.40
2019-05-02T17:40:12.338Z,73.50
2019-05-02T17:42:44.438Z,72.90
2019-05-02T17:45:14.257Z,73.30
2019-05-02T17:47:43.025Z,72.10
2019-05-02T17:50:19.409Z,73.10
2019-05-02T17:52:48.418Z,74.10
2019-05-02T17:55:17.192Z,73.60
2019-05-02T17:57:45.973Z,73.80
2019-05-02T18:00:16.880Z,72.80
2019-05-02T18:02:47.047Z,73.70
2019-05-02T18:05:15.841Z,72.10
2019-05-02T18:07:44.627Z,72.60
2019-05-02T18:10:18.382Z,73.10
2019-05-02T18:12:47.734Z,75.40
2019-05-02T18:15:14.282Z,76.40
2019-05-02T18:17:43.070Z,77.30
2019-05-02T18:20:14.452Z,77.70
2019-05-02T18:22:47.144Z,78.50
2019-05-02T18:25:16.365Z,79.50
2019-05-02T18:27:43.513Z,79.60
2019-05-02T18:30:17.257Z,78.50
2019-05-02T18:32:45.553Z,79.50
2019-05-02T18:35:14.550Z,79.10
2019-05-02T18:37:46.731Z,78.20
2019-05-02T18:40:15.464Z,77.80
2019-05-02T18:42:44.309Z,77.50
2019-05-02T18:45:16.173Z,77.00
2019-05-02T18:47:44.604Z,77.10
2019-05-02T18:50:28.009Z,77.30
2019-05-02T18:52:56.515Z,77.30
2019-05-02T18:55:26.098Z,75.50
2019-05-02T18:57:57.106Z,75.50
2019-05-02T19:00:27.951Z,76.10
2019-05-02T19:02:56.555Z,77.00
2019-05-02T19:05:26.582Z,75.80
2019-05-02T19:07:56.493Z,75.60
2019-05-02T19:10:25.204Z,77.20
2019-05-02T19:12:56.060Z,81.00
2019-05-02T19:15:23.964Z,83.60
2019-05-02T19:17:53.022Z,90.70
2019-05-02T19:20:24.678Z,90.40
2019-05-02T19:22:56.864Z,92.70
2019-05-02T19:25:23.625Z,92.70
2019-05-02T19:27:57.597Z,95.50
2019-05-02T19:30:36.505Z,96.30
2019-05-02T19:33:07.823Z,96.60
2019-05-02T19:35:37.535Z,95.30
2019-05-02T19:38:05.908Z,95.60
2019-05-02T19:40:34.644Z,96.40
2019-05-02T19:43:07.523Z,94.40
2019-05-02T19:45:33.280Z,95.80
2019-05-02T19:48:02.685Z,94.40
2019-05-02T19:50:41.729Z,96.00
2019-05-02T19:53:14.879Z,95.80
2019-05-02T19:55:37.646Z,95.20
2019-05-02T19:58:06.928Z,95.80
2019-05-02T20:00:36.599Z,95.50
2019-05-02T20:03:05.558Z,96.70
2019-05-02T20:05:34.125Z,97.60
2019-05-02T20:08:02.909Z,98.20
2019-05-02T20:10:37.365Z,97.20
2019-05-02T20:13:05.905Z,97.40
2019-05-02T20:15:36.052Z,97.50
2019-05-02T20:18:04.981Z,97.00
2019-05-02T20:20:51.865Z,97.10
2019-05-02T20:23:28.578Z,97.00
2019-05-02T20:25:52.214Z,95.90
2019-05-02T20:28:21.815Z,95.40
2019-05-02T20:30:52.533Z,96.90
2019-05-02T20:33:22.259Z,96.90
2019-05-02T20:35:52.648Z,97.50
2019-05-02T20:38:21.962Z,97.40
2019-05-02T20:40:52.172Z,95.60
2019-05-02T20:43:22.616Z,95.40
2019-05-02T20:45:52.731Z,96.00
2019-05-02T20:48:22.725Z,95.50
2019-05-02T20:50:52.071Z,95.20
2019-05-02T20:53:28.807Z,94.60
2019-05-02T20:55:52.365Z,94.80
2019-05-02T20:58:21.975Z,94.40
2019-05-02T21:01:05.087Z,94.30
2019-05-02T21:03:21.103Z,93.10
2019-05-02T21:06:38.664Z,95.60
2019-05-02T21:09:16.003Z,94.60
2019-05-02T21:11:46.153Z,94.60
2019-05-02T21:14:14.633Z,93.60
2019-05-02T21:16:43.114Z,93.60
2019-05-02T21:19:12.407Z,93.70
2019-05-02T21:21:42.687Z,93.30
2019-05-02T21:24:11.296Z,93.40
2019-05-02T21:26:42.006Z,92.50
2019-05-02T21:29:11.990Z,92.90
2019-05-02T21:31:40.131Z,93.20
2019-05-02T21:34:08.579Z,91.80
2019-05-02T21:36:37.332Z,93.00
2019-05-02T21:39:08.928Z,91.20
2019-05-02T21:41:42.464Z,92.30
2019-05-02T21:44:12.948Z,92.70
2019-05-02T21:46:42.321Z,91.90
2019-05-02T21:49:12.076Z,93.40
2019-05-02T21:51:42.621Z,92.80
2019-05-02T21:54:18.733Z,92.10
2019-05-02T21:56:54.884Z,92.70
2019-05-02T21:59:23.598Z,92.60
2019-05-02T22:01:53.890Z,92.90
2019-05-02T22:04:22.714Z,92.30
2019-05-02T22:06:52.144Z,92.10
2019-05-02T22:09:23.191Z,93.20
2019-05-02T22:11:52.301Z,92.30
2019-05-02T22:14:22.262Z,93.30
2019-05-02T22:16:52.926Z,92.60
2019-05-02T22:19:21.327Z,91.80
2019-05-02T22:21:52.413Z,92.30
2019-05-02T22:24:21.322Z,92.60
2019-05-02T22:26:50.064Z,93.90
2019-05-02T22:29:18.926Z,93.10
2019-05-02T22:31:47.718Z,92.90
2019-05-02T22:34:16.148Z,93.00
2019-05-02T22:36:48.479Z,93.20
2019-05-02T22:39:35.244Z,92.30
2019-05-02T22:42:04.562Z,91.80
2019-05-02T22:44:33.333Z,91.40
2019-05-02T22:47:02.070Z,92.40
2019-05-02T22:49:31.875Z,92.90
2019-05-02T22:52:00.869Z,92.90
2019-05-02T22:54:33.939Z,93.40
2019-05-02T22:57:02.702Z,92.90
2019-05-02T22:59:31.682Z,92.30
2019-05-02T23:02:01.988Z,91.90
2019-05-02T23:04:32.559Z,92.40
2019-05-02T23:07:02.365Z,94.10
2019-05-02T23:09:31.213Z,93.00
2019-05-02T23:12:00.031Z,92.90
2019-05-02T23:14:28.460Z,91.80
2019-05-02T23:16:56.896Z,92.20
2019-05-02T23:19:25.348Z,92.30
2019-05-02T23:21:54.998Z,92.60
2019-05-02T23:24:36.273Z,92.20
2019-05-02T23:27:00.999Z,92.80
2019-05-02T23:29:29.445Z,92.30
2019-05-02T23:31:57.876Z,92.20
2019-05-02T23:34:26.333Z,93.00
2019-05-02T23:36:54.764Z,92.50
2019-05-02T23:39:23.226Z,92.80
2019-05-02T23:41:52.486Z,91.70
2019-05-02T23:44:22.836Z,91.70
2019-05-02T23:46:51.639Z,92.00
2019-05-02T23:49:22.027Z,91.70
2019-05-02T23:51:51.021Z,91.90
2019-05-02T23:54:19.458Z,92.20
2019-05-02T23:56:47.925Z,91.50
2019-05-02T23:59:16.617Z,92.10
